sensor_id;sensor_type;location;lat;lon;timestamp;P1;durP1;ratioP1;P2;durP2;ratioP2
18364;SDS011;9309;52.126;11.616;2024-01-30T00:00:24;25.57;;;14.00;;
18364;SDS011;9309;52.126;11.616;2024-01-30T00:02:52;21.43;;;12.73;;
18364;SDS011;9309;52.126;11.616;2024-01-30T00:05:19;28.07;;;12.97;;
18364;SDS011;9309;52.126;11.616;2024-01-30T00:07:45;25.17;;;12.80;;
18364;SDS011;9309;52.126;11.616;2024-01-30T00:10:12;25.97;;;13.57;;
18364;SDS011;9309;52.126;11.616;2024-01-30T00:12:39;23.17;;;13.50;;
18364;SDS011;9309;52.126;11.616;2024-01-30T00:15:06;31.03;;;13.70;;
18364;SDS011;9309;52.126;11.616;2024-01-30T00:17:35;24.57;;;12.43;;
18364;SDS011;9309;52.126;11.616;2024-01-30T00:20:03;24.47;;;13.50;;
18364;SDS011;9309;52.126;11.616;2024-01-30T00:22:31;25.17;;;12.60;;
18364;SDS011;9309;52.126;11.616;2024-01-30T00:24:58;28.50;;;13.60;;
18364;SDS011;9309;52.126;11.616;2024-01-30T00:27:25;22.87;;;13.30;;
18364;SDS011;9309;52.126;11.616;2024-01-30T00:29:52;29.13;;;13.63;;
18364;SDS011;9309;52.126;11.616;2024-01-30T00:32:19;23.83;;;13.17;;
18364;SDS011;9309;52.126;11.616;2024-01-30T00:34:47;22.63;;;13.97;;
18364;SDS011;9309;52.126;11.616;2024-01-30T00:37:16;27.67;;;14.33;;
18364;SDS011;9309;52.126;11.616;2024-01-30T00:39:42;26.53;;;13.03;;
18364;SDS011;9309;52.126;11.616;2024-01-30T00:42:09;21.27;;;13.37;;
18364;SDS011;9309;52.126;11.616;2024-01-30T00:44:36;27.43;;;13.80;;
18364;SDS011;9309;52.126;11.616;2024-01-30T00:47:03;28.33;;;13.60;;
18364;SDS011;9309;52.126;11.616;2024-01-30T00:49:30;23.83;;;12.73;;
18364;SDS011;9309;52.126;11.616;2024-01-30T00:51:57;22.23;;;13.37;;
18364;SDS011;9309;52.126;11.616;2024-01-30T00:54:25;30.90;;;14.30;;
18364;SDS011;9309;52.126;11.616;2024-01-30T00:56:52;24.90;;;13.23;;
18364;SDS011;9309;52.126;11.616;2024-01-30T00:59:19;25.47;;;13.63;;
18364;SDS011;9309;52.126;11.616;2024-01-30T01:01:45;26.30;;;13.00;;
18364;SDS011;9309;52.126;11.616;2024-01-30T01:04:12;26.40;;;13.87;;
18364;SDS011;9309;52.126;11.616;2024-01-30T01:06:39;25.17;;;12.90;;
18364;SDS011;9309;52.126;11.616;2024-01-30T01:09:07;19.87;;;12.30;;
18364;SDS011;9309;52.126;11.616;2024-01-30T01:11:35;25.07;;;13.77;;
18364;SDS011;9309;52.126;11.616;2024-01-30T01:14:03;23.27;;;12.50;;
18364;SDS011;9309;52.126;11.616;2024-01-30T01:16:30;26.17;;;13.70;;
18364;SDS011;9309;52.126;11.616;2024-01-30T01:18:57;23.27;;;13.43;;
18364;SDS011;9309;52.126;11.616;2024-01-30T01:21:25;22.17;;;13.03;;
18364;SDS011;9309;52.126;11.616;2024-01-30T01:23:52;21.93;;;12.23;;
18364;SDS011;9309;52.126;11.616;2024-01-30T01:26:19;25.83;;;12.80;;
18364;SDS011;9309;52.126;11.616;2024-01-30T01:28:47;22.07;;;12.80;;
18364;SDS011;9309;52.126;11.616;2024-01-30T01:31:14;24.23;;;13.27;;
18364;SDS011;9309;52.126;11.616;2024-01-30T01:33:42;18.63;;;12.10;;
18364;SDS011;9309;52.126;11.616;2024-01-30T01:36:09;20.83;;;12.27;;
18364;SDS011;9309;52.126;11.616;2024-01-30T01:38:36;24.10;;;13.20;;
18364;SDS011;9309;52.126;11.616;2024-01-30T01:41:02;26.47;;;13.27;;
18364;SDS011;9309;52.126;11.616;2024-01-30T01:43:29;21.50;;;12.87;;
18364;SDS011;9309;52.126;11.616;2024-01-30T01:45:57;20.33;;;12.37;;
18364;SDS011;9309;52.126;11.616;2024-01-30T01:48:24;23.93;;;13.13;;
18364;SDS011;9309;52.126;11.616;2024-01-30T01:50:52;21.70;;;12.97;;
18364;SDS011;9309;52.126;11.616;2024-01-30T01:53:19;23.97;;;12.53;;
18364;SDS011;9309;52.126;11.616;2024-01-30T01:55:46;23.07;;;12.57;;
18364;SDS011;9309;52.126;11.616;2024-01-30T01:58:14;25.70;;;12.00;;
18364;SDS011;9309;52.126;11.616;2024-01-30T02:00:41;22.77;;;12.23;;
18364;SDS011;9309;52.126;11.616;2024-01-30T02:03:09;22.47;;;12.30;;
18364;SDS011;9309;52.126;11.616;2024-01-30T02:05:37;22.43;;;12.20;;
18364;SDS011;9309;52.126;11.616;2024-01-30T02:08:05;25.77;;;13.07;;
18364;SDS011;9309;52.126;11.616;2024-01-30T02:10:32;26.07;;;11.93;;
18364;SDS011;9309;52.126;11.616;2024-01-30T02:12:59;22.17;;;12.13;;
18364;SDS011;9309;52.126;11.616;2024-01-30T02:15:26;25.27;;;13.13;;
18364;SDS011;9309;52.126;11.616;2024-01-30T02:17:54;30.33;;;13.60;;
18364;SDS011;9309;52.126;11.616;2024-01-30T02:20:22;19.13;;;11.53;;
18364;SDS011;9309;52.126;11.616;2024-01-30T02:22:53;23.13;;;12.47;;
18364;SDS011;9309;52.126;11.616;2024-01-30T02:25:29;23.83;;;12.33;;
18364;SDS011;9309;52.126;11.616;2024-01-30T02:27:56;22.63;;;12.73;;
18364;SDS011;9309;52.126;11.616;2024-01-30T02:30:23;24.17;;;12.47;;
18364;SDS011;9309;52.126;11.616;2024-01-30T02:32:50;24.30;;;12.90;;
18364;SDS011;9309;52.126;11.616;2024-01-30T02:35:16;22.53;;;11.50;;
18364;SDS011;9309;52.126;11.616;2024-01-30T02:37:43;21.87;;;12.43;;
18364;SDS011;9309;52.126;11.616;2024-01-30T02:40:11;19.10;;;12.67;;
18364;SDS011;9309;52.126;11.616;2024-01-30T02:42:38;18.60;;;11.33;;
18364;SDS011;9309;52.126;11.616;2024-01-30T02:45:07;20.30;;;12.03;;
18364;SDS011;9309;52.126;11.616;2024-01-30T02:47:34;18.50;;;11.07;;
18364;SDS011;9309;52.126;11.616;2024-01-30T02:50:01;20.67;;;11.77;;
18364;SDS011;9309;52.126;11.616;2024-01-30T02:52:29;19.20;;;11.53;;
18364;SDS011;9309;52.126;11.616;2024-01-30T02:54:56;18.07;;;11.00;;
18364;SDS011;9309;52.126;11.616;2024-01-30T03:01:11;18.70;;;11.23;;
18364;SDS011;9309;52.126;11.616;2024-01-30T03:03:38;26.03;;;10.97;;
18364;SDS011;9309;52.126;11.616;2024-01-30T03:06:05;21.27;;;12.57;;
18364;SDS011;9309;52.126;11.616;2024-01-30T03:08:33;16.80;;;10.97;;
18364;SDS011;9309;52.126;11.616;2024-01-30T03:11:00;21.90;;;11.67;;
18364;SDS011;9309;52.126;11.616;2024-01-30T03:13:27;21.80;;;11.70;;
18364;SDS011;9309;52.126;11.616;2024-01-30T03:15:54;17.90;;;11.37;;
18364;SDS011;9309;52.126;11.616;2024-01-30T03:18:22;22.37;;;11.47;;
18364;SDS011;9309;52.126;11.616;2024-01-30T03:20:48;17.03;;;11.43;;
18364;SDS011;9309;52.126;11.616;2024-01-30T03:23:15;17.77;;;11.60;;
18364;SDS011;9309;52.126;11.616;2024-01-30T03:25:42;20.37;;;11.53;;
18364;SDS011;9309;52.126;11.616;2024-01-30T03:28:09;19.30;;;11.73;;
18364;SDS011;9309;52.126;11.616;2024-01-30T03:30:35;19.73;;;11.57;;
18364;SDS011;9309;52.126;11.616;2024-01-30T03:33:02;20.90;;;11.73;;
18364;SDS011;9309;52.126;11.616;2024-01-30T03:35:30;20.40;;;12.00;;
18364;SDS011;9309;52.126;11.616;2024-01-30T03:37:57;21.03;;;10.80;;
18364;SDS011;9309;52.126;11.616;2024-01-30T03:40:24;23.13;;;11.90;;
18364;SDS011;9309;52.126;11.616;2024-01-30T03:42:50;22.53;;;11.83;;
18364;SDS011;9309;52.126;11.616;2024-01-30T03:45:17;19.97;;;11.73;;
18364;SDS011;9309;52.126;11.616;2024-01-30T03:47:44;27.20;;;11.00;;
18364;SDS011;9309;52.126;11.616;2024-01-30T03:50:11;20.90;;;10.97;;
18364;SDS011;9309;52.126;11.616;2024-01-30T03:52:39;22.53;;;11.80;;
18364;SDS011;9309;52.126;11.616;2024-01-30T03:55:06;22.00;;;12.63;;
18364;SDS011;9309;52.126;11.616;2024-01-30T03:57:34;28.73;;;12.63;;
18364;SDS011;9309;52.126;11.616;2024-01-30T04:00:00;18.53;;;11.50;;
18364;SDS011;9309;52.126;11.616;2024-01-30T04:02:37;22.07;;;11.63;;
18364;SDS011;9309;52.126;11.616;2024-01-30T04:05:04;18.43;;;11.10;;
18364;SDS011;9309;52.126;11.616;2024-01-30T04:07:31;20.63;;;12.13;;
18364;SDS011;9309;52.126;11.616;2024-01-30T04:09:59;21.37;;;12.37;;
18364;SDS011;9309;52.126;11.616;2024-01-30T04:12:26;24.40;;;11.03;;
18364;SDS011;9309;52.126;11.616;2024-01-30T04:14:53;22.50;;;11.60;;
18364;SDS011;9309;52.126;11.616;2024-01-30T04:17:19;21.47;;;11.47;;
18364;SDS011;9309;52.126;11.616;2024-01-30T04:19:46;26.07;;;11.33;;
18364;SDS011;9309;52.126;11.616;2024-01-30T04:22:13;20.87;;;11.70;;
18364;SDS011;9309;52.126;11.616;2024-01-30T04:24:40;19.83;;;11.03;;
18364;SDS011;9309;52.126;11.616;2024-01-30T04:27:08;19.57;;;11.63;;
18364;SDS011;9309;52.126;11.616;2024-01-30T04:29:34;21.70;;;11.10;;
18364;SDS011;9309;52.126;11.616;2024-01-30T04:32:01;20.03;;;10.70;;
18364;SDS011;9309;52.126;11.616;2024-01-30T04:34:28;20.23;;;11.33;;
18364;SDS011;9309;52.126;11.616;2024-01-30T04:36:55;17.33;;;11.00;;
18364;SDS011;9309;52.126;11.616;2024-01-30T04:39:23;19.37;;;10.53;;
18364;SDS011;9309;52.126;11.616;2024-01-30T04:41:49;20.23;;;11.20;;
18364;SDS011;9309;52.126;11.616;2024-01-30T04:44:18;16.30;;;11.17;;
18364;SDS011;9309;52.126;11.616;2024-01-30T04:46:45;22.10;;;10.73;;
18364;SDS011;9309;52.126;11.616;2024-01-30T04:49:12;18.20;;;11.30;;
18364;SDS011;9309;52.126;11.616;2024-01-30T04:51:38;21.83;;;11.73;;
18364;SDS011;9309;52.126;11.616;2024-01-30T04:54:05;20.83;;;12.17;;
18364;SDS011;9309;52.126;11.616;2024-01-30T04:56:32;27.27;;;13.17;;
18364;SDS011;9309;52.126;11.616;2024-01-30T04:58:59;26.93;;;13.67;;
18364;SDS011;9309;52.126;11.616;2024-01-30T05:01:27;18.70;;;11.47;;
18364;SDS011;9309;52.126;11.616;2024-01-30T05:03:54;21.93;;;11.73;;
18364;SDS011;9309;52.126;11.616;2024-01-30T05:06:24;17.40;;;11.57;;
18364;SDS011;9309;52.126;11.616;2024-01-30T05:08:51;26.40;;;11.67;;
18364;SDS011;9309;52.126;11.616;2024-01-30T05:11:18;19.80;;;11.77;;
18364;SDS011;9309;52.126;11.616;2024-01-30T05:13:44;25.07;;;12.53;;
18364;SDS011;9309;52.126;11.616;2024-01-30T05:16:11;24.23;;;12.33;;
18364;SDS011;9309;52.126;11.616;2024-01-30T05:18:39;27.33;;;12.90;;
18364;SDS011;9309;52.126;11.616;2024-01-30T05:21:06;20.70;;;11.80;;
18364;SDS011;9309;52.126;11.616;2024-01-30T05:23:33;19.33;;;12.13;;
18364;SDS011;9309;52.126;11.616;2024-01-30T05:26:00;19.70;;;11.53;;
18364;SDS011;9309;52.126;11.616;2024-01-30T05:28:27;23.13;;;11.87;;
18364;SDS011;9309;52.126;11.616;2024-01-30T05:30:54;21.30;;;12.03;;
18364;SDS011;9309;52.126;11.616;2024-01-30T05:33:21;23.73;;;12.27;;
18364;SDS011;9309;52.126;11.616;2024-01-30T05:35:49;22.27;;;11.93;;
18364;SDS011;9309;52.126;11.616;2024-01-30T05:38:19;17.67;;;11.00;;
18364;SDS011;9309;52.126;11.616;2024-01-30T05:40:46;20.30;;;12.37;;
18364;SDS011;9309;52.126;11.616;2024-01-30T05:43:12;26.07;;;11.40;;
18364;SDS011;9309;52.126;11.616;2024-01-30T05:45:39;19.17;;;11.80;;
18364;SDS011;9309;52.126;11.616;2024-01-30T05:48:06;22.43;;;12.27;;
18364;SDS011;9309;52.126;11.616;2024-01-30T05:50:33;21.83;;;11.50;;
18364;SDS011;9309;52.126;11.616;2024-01-30T05:53:01;24.63;;;11.67;;
18364;SDS011;9309;52.126;11.616;2024-01-30T05:55:28;22.73;;;11.47;;
18364;SDS011;9309;52.126;11.616;2024-01-30T05:57:54;26.37;;;12.23;;
18364;SDS011;9309;52.126;11.616;2024-01-30T06:00:21;23.37;;;11.90;;
18364;SDS011;9309;52.126;11.616;2024-01-30T06:06:35;20.97;;;11.63;;
18364;SDS011;9309;52.126;11.616;2024-01-30T06:09:03;21.80;;;11.90;;
18364;SDS011;9309;52.126;11.616;2024-01-30T06:11:30;25.37;;;12.97;;
18364;SDS011;9309;52.126;11.616;2024-01-30T06:13:56;24.07;;;12.53;;
18364;SDS011;9309;52.126;11.616;2024-01-30T06:16:23;24.97;;;13.13;;
18364;SDS011;9309;52.126;11.616;2024-01-30T06:18:54;23.07;;;12.87;;
18364;SDS011;9309;52.126;11.616;2024-01-30T06:21:21;23.80;;;13.20;;
18364;SDS011;9309;52.126;11.616;2024-01-30T06:23:48;24.83;;;12.83;;
18364;SDS011;9309;52.126;11.616;2024-01-30T06:26:16;29.83;;;12.63;;
18364;SDS011;9309;52.126;11.616;2024-01-30T06:28:42;19.20;;;11.17;;
18364;SDS011;9309;52.126;11.616;2024-01-30T06:31:09;23.50;;;12.40;;
18364;SDS011;9309;52.126;11.616;2024-01-30T06:33:36;24.67;;;12.27;;
18364;SDS011;9309;52.126;11.616;2024-01-30T06:36:03;21.03;;;12.30;;
18364;SDS011;9309;52.126;11.616;2024-01-30T06:38:30;25.77;;;13.90;;
18364;SDS011;9309;52.126;11.616;2024-01-30T06:40:57;24.83;;;12.53;;
18364;SDS011;9309;52.126;11.616;2024-01-30T06:43:25;25.70;;;12.70;;
18364;SDS011;9309;52.126;11.616;2024-01-30T06:45:51;27.10;;;12.97;;
18364;SDS011;9309;52.126;11.616;2024-01-30T06:48:18;25.67;;;12.07;;
18364;SDS011;9309;52.126;11.616;2024-01-30T06:50:45;24.43;;;13.03;;
18364;SDS011;9309;52.126;11.616;2024-01-30T06:53:13;24.23;;;12.10;;
18364;SDS011;9309;52.126;11.616;2024-01-30T06:55:39;21.73;;;11.53;;
18364;SDS011;9309;52.126;11.616;2024-01-30T06:58:06;21.47;;;12.50;;
18364;SDS011;9309;52.126;11.616;2024-01-30T07:00:34;21.23;;;11.90;;
18364;SDS011;9309;52.126;11.616;2024-01-30T07:03:01;25.23;;;12.77;;
18364;SDS011;9309;52.126;11.616;2024-01-30T07:05:28;27.50;;;13.27;;
18364;SDS011;9309;52.126;11.616;2024-01-30T07:07:54;27.63;;;12.40;;
18364;SDS011;9309;52.126;11.616;2024-01-30T07:10:21;24.67;;;12.83;;
18364;SDS011;9309;52.126;11.616;2024-01-30T07:12:48;24.43;;;12.60;;
18364;SDS011;9309;52.126;11.616;2024-01-30T07:15:14;17.43;;;11.70;;
18364;SDS011;9309;52.126;11.616;2024-01-30T07:17:46;27.63;;;12.50;;
18364;SDS011;9309;52.126;11.616;2024-01-30T07:20:13;19.97;;;12.07;;
18364;SDS011;9309;52.126;11.616;2024-01-30T07:22:39;19.77;;;12.40;;
18364;SDS011;9309;52.126;11.616;2024-01-30T07:25:06;26.80;;;11.77;;
18364;SDS011;9309;52.126;11.616;2024-01-30T07:27:34;26.63;;;13.03;;
18364;SDS011;9309;52.126;11.616;2024-01-30T07:30:00;23.53;;;12.30;;
18364;SDS011;9309;52.126;11.616;2024-01-30T07:32:27;23.40;;;13.10;;
18364;SDS011;9309;52.126;11.616;2024-01-30T07:34:55;31.50;;;14.03;;
18364;SDS011;9309;52.126;11.616;2024-01-30T07:37:22;23.97;;;12.10;;
18364;SDS011;9309;52.126;11.616;2024-01-30T07:39:49;26.30;;;13.90;;
18364;SDS011;9309;52.126;11.616;2024-01-30T07:42:17;22.70;;;12.67;;
18364;SDS011;9309;52.126;11.616;2024-01-30T07:44:43;22.67;;;13.70;;
18364;SDS011;9309;52.126;11.616;2024-01-30T07:47:10;19.70;;;12.03;;
18364;SDS011;9309;52.126;11.616;2024-01-30T07:49:37;20.87;;;12.80;;
18364;SDS011;9309;52.126;11.616;2024-01-30T07:52:05;19.17;;;12.80;;
18364;SDS011;9309;52.126;11.616;2024-01-30T07:54:32;22.03;;;12.93;;
18364;SDS011;9309;52.126;11.616;2024-01-30T07:57:00;23.87;;;12.27;;
18364;SDS011;9309;52.126;11.616;2024-01-30T07:59:26;23.80;;;12.57;;
18364;SDS011;9309;52.126;11.616;2024-01-30T08:01:53;30.67;;;12.27;;
18364;SDS011;9309;52.126;11.616;2024-01-30T08:04:20;21.33;;;12.63;;
18364;SDS011;9309;52.126;11.616;2024-01-30T08:06:47;22.20;;;12.30;;
18364;SDS011;9309;52.126;11.616;2024-01-30T08:09:15;22.50;;;12.13;;
18364;SDS011;9309;52.126;11.616;2024-01-30T08:11:42;22.27;;;12.20;;
18364;SDS011;9309;52.126;11.616;2024-01-30T08:14:08;20.17;;;11.90;;
18364;SDS011;9309;52.126;11.616;2024-01-30T08:16:35;18.30;;;11.93;;
18364;SDS011;9309;52.126;11.616;2024-01-30T08:19:02;22.67;;;12.97;;
18364;SDS011;9309;52.126;11.616;2024-01-30T08:21:29;22.30;;;12.40;;
18364;SDS011;9309;52.126;11.616;2024-01-30T08:24:01;21.13;;;12.67;;
18364;SDS011;9309;52.126;11.616;2024-01-30T08:26:30;25.30;;;10.83;;
18364;SDS011;9309;52.126;11.616;2024-01-30T08:28:57;25.90;;;11.90;;
18364;SDS011;9309;52.126;11.616;2024-01-30T08:31:23;19.00;;;11.50;;
18364;SDS011;9309;52.126;11.616;2024-01-30T08:33:50;17.53;;;10.43;;
18364;SDS011;9309;52.126;11.616;2024-01-30T08:36:17;25.30;;;11.50;;
18364;SDS011;9309;52.126;11.616;2024-01-30T08:38:44;20.60;;;10.47;;
18364;SDS011;9309;52.126;11.616;2024-01-30T08:41:11;18.93;;;11.27;;
18364;SDS011;9309;52.126;11.616;2024-01-30T08:58:19;17.90;;;10.07;;
18364;SDS011;9309;52.126;11.616;2024-01-30T09:00:47;15.70;;;8.53;;
18364;SDS011;9309;52.126;11.616;2024-01-30T09:03:14;20.07;;;9.20;;
18364;SDS011;9309;52.126;11.616;2024-01-30T09:05:40;16.40;;;8.57;;
18364;SDS011;9309;52.126;11.616;2024-01-30T09:08:07;19.07;;;8.53;;
18364;SDS011;9309;52.126;11.616;2024-01-30T09:10:34;10.47;;;7.90;;
18364;SDS011;9309;52.126;11.616;2024-01-30T09:13:01;12.43;;;8.37;;
18364;SDS011;9309;52.126;11.616;2024-01-30T09:15:28;10.97;;;8.13;;
18364;SDS011;9309;52.126;11.616;2024-01-30T09:17:56;13.03;;;7.70;;
18364;SDS011;9309;52.126;11.616;2024-01-30T09:20:22;18.70;;;8.40;;
18364;SDS011;9309;52.126;11.616;2024-01-30T09:22:49;9.93;;;7.40;;
18364;SDS011;9309;52.126;11.616;2024-01-30T09:25:16;13.13;;;7.77;;
18364;SDS011;9309;52.126;11.616;2024-01-30T09:27:43;14.67;;;7.63;;
18364;SDS011;9309;52.126;11.616;2024-01-30T09:30:10;14.57;;;7.70;;
18364;SDS011;9309;52.126;11.616;2024-01-30T09:35:39;20.13;;;8.07;;
18364;SDS011;9309;52.126;11.616;2024-01-30T09:38:06;13.73;;;7.83;;
18364;SDS011;9309;52.126;11.616;2024-01-30T09:40:33;11.93;;;7.70;;
18364;SDS011;9309;52.126;11.616;2024-01-30T09:42:59;16.00;;;9.43;;
18364;SDS011;9309;52.126;11.616;2024-01-30T09:45:26;15.97;;;8.10;;
18364;SDS011;9309;52.126;11.616;2024-01-30T09:47:53;16.03;;;8.03;;
18364;SDS011;9309;52.126;11.616;2024-01-30T09:50:20;14.87;;;7.83;;
18364;SDS011;9309;52.126;11.616;2024-01-30T09:52:48;16.77;;;8.00;;
18364;SDS011;9309;52.126;11.616;2024-01-30T09:55:15;14.00;;;7.93;;
18364;SDS011;9309;52.126;11.616;2024-01-30T09:57:42;16.60;;;8.03;;
18364;SDS011;9309;52.126;11.616;2024-01-30T10:00:09;13.90;;;8.03;;
18364;SDS011;9309;52.126;11.616;2024-01-30T10:02:40;15.07;;;7.80;;
18364;SDS011;9309;52.126;11.616;2024-01-30T10:05:07;9.80;;;6.77;;
